Airfield :
LOGIN :

Register | Disclaimer

   EN    FR    IT 

 










Legend :    VFR   Marginal VFR   IFR   Intensive IFR   Very Intensive IFR
Visi :
Ceiling :
>= 8 km
>= 3000ft
5 to 8 km
1000 to 3000 ft
1500m to 5 km
500 to 1000 ft
800 to 1500m
200 to 500 ft
< 800m
< 200 ft
Symbols :   Thunderstorms  Fog  Heavy snow  Heavy precipitations  Wind > 20 kt
SIGMETs :     Misc.  Thunderstorms  Icing  Turbulence  Mountain Waves  Volcanic Ashes







- Airport Elevation : 93 ft
- IATA code : XRY


LEJR - Jerez

CURRENT METAR :
  • 210230Z AUTO VRB01KT CAVOK 21/16 Q1016

EXPIRED METARs :
  • 210200Z AUTO 00000KT CAVOK 21/15 Q1015
  • 210130Z AUTO VRB02KT CAVOK 23/14 Q1015
  • 210100Z AUTO 32005KT 290V020 CAVOK 22/15 Q1015
  • 210030Z AUTO 12005KT 060V170 CAVOK 22/14 Q1016
  • 210000Z AUTO 36006KT 9999 FEW050 20/17 Q1015

TAF TAF LEJR
Valid from the 21 at 00:00 until the 22 at 00:00 UTC


202300Z 2100/2124 VRB03KT CAVOK TX32/2115Z TN17/2106Z
PROB40
TEMPO 2100/2112 18015G25KT 3000 TSRA SCT030CB
No reported NOTAMs for that airfield.
2 SIGMETs reported for the Madrid FIR (LECM) :
 
Embedded thunderstorms
LECM SIGMET 2 VALID 210206/210500 LEVA
LECM MADRID FIR/UIR EMBD TS OBS AT 0206Z S OF LINE N3657 W00603 - N3657 W00433 TOP FL340 STNR NC=
Embedded thunderstorms
LECM SIGMET 1 VALID 210107/210500 LEVA
LECM MADRID FIR/UIR EMBD TS OBS AT 0107Z WI N4138 W00246 - N4031 W00528 - N4244 W00631 - N4244 W00426 - N4138 W00246 TOP FL380 STNR NC=



MET'MAP, your aeronautical weather chart ! - Copyright ORBIFLY December 2007 - Disclaimer

ORBIFLY MET'MAP TEAM :

Programming & Development : Alexandra Zaïnal
Concept & Development : Baudouin d'Aumeries
Co-Development & Prog : Marc-Olivier Méhu
Technical & hardware support : Manuel Goepfert

Contact : metmap@orbifly.com




SOURCES & CREDITS :

   NOAA